sensor_id;sensor_type;location;lat;lon;timestamp;P1;durP1;ratioP1;P2;durP2;ratioP2
18290;SDS011;9271;48.590;8.866;2022-08-25T00:00:47;3.10;;;2.90;;
18290;SDS011;9271;48.590;8.866;2022-08-25T00:03:15;3.10;;;2.80;;
18290;SDS011;9271;48.590;8.866;2022-08-25T00:05:42;3.07;;;2.80;;
18290;SDS011;9271;48.590;8.866;2022-08-25T00:08:08;3.10;;;2.90;;
18290;SDS011;9271;48.590;8.866;2022-08-25T00:10:38;4.67;;;3.00;;
18290;SDS011;9271;48.590;8.866;2022-08-25T00:13:06;3.37;;;2.90;;
18290;SDS011;9271;48.590;8.866;2022-08-25T00:15:33;3.03;;;2.83;;
18290;SDS011;9271;48.590;8.866;2022-08-25T00:18:02;3.00;;;2.83;;
18290;SDS011;9271;48.590;8.866;2022-08-25T00:20:29;3.00;;;2.80;;
18290;SDS011;9271;48.590;8.866;2022-08-25T00:22:56;3.40;;;2.77;;
18290;SDS011;9271;48.590;8.866;2022-08-25T00:25:23;4.50;;;2.87;;
18290;SDS011;9271;48.590;8.866;2022-08-25T00:27:50;3.03;;;2.83;;
18290;SDS011;9271;48.590;8.866;2022-08-25T00:30:17;3.57;;;2.90;;
18290;SDS011;9271;48.590;8.866;2022-08-25T00:32:45;3.27;;;3.07;;
18290;SDS011;9271;48.590;8.866;2022-08-25T00:35:14;3.10;;;2.90;;
18290;SDS011;9271;48.590;8.866;2022-08-25T00:37:41;3.70;;;3.20;;
18290;SDS011;9271;48.590;8.866;2022-08-25T00:40:08;4.77;;;2.80;;
18290;SDS011;9271;48.590;8.866;2022-08-25T00:42:35;3.33;;;3.13;;
18290;SDS011;9271;48.590;8.866;2022-08-25T00:45:04;5.30;;;3.13;;
18290;SDS011;9271;48.590;8.866;2022-08-25T00:47:31;3.10;;;2.90;;
18290;SDS011;9271;48.590;8.866;2022-08-25T00:49:59;3.10;;;2.90;;
18290;SDS011;9271;48.590;8.866;2022-08-25T00:52:31;4.43;;;3.00;;
18290;SDS011;9271;48.590;8.866;2022-08-25T00:55:02;3.30;;;3.00;;
18290;SDS011;9271;48.590;8.866;2022-08-25T00:57:32;8.30;;;3.07;;
18290;SDS011;9271;48.590;8.866;2022-08-25T01:00:03;3.00;;;2.80;;
18290;SDS011;9271;48.590;8.866;2022-08-25T01:02:31;3.00;;;2.80;;
18290;SDS011;9271;48.590;8.866;2022-08-25T01:04:58;3.60;;;3.30;;
18290;SDS011;9271;48.590;8.866;2022-08-25T01:07:25;3.73;;;2.87;;
18290;SDS011;9271;48.590;8.866;2022-08-25T01:09:53;3.20;;;3.00;;
18290;SDS011;9271;48.590;8.866;2022-08-25T01:12:20;3.43;;;3.23;;
18290;SDS011;9271;48.590;8.866;2022-08-25T01:14:47;3.50;;;3.30;;
18290;SDS011;9271;48.590;8.866;2022-08-25T01:17:16;4.57;;;3.40;;
18290;SDS011;9271;48.590;8.866;2022-08-25T01:19:43;4.23;;;3.00;;
18290;SDS011;9271;48.590;8.866;2022-08-25T01:22:11;3.73;;;3.20;;
18290;SDS011;9271;48.590;8.866;2022-08-25T01:24:39;6.53;;;3.30;;
18290;SDS011;9271;48.590;8.866;2022-08-25T01:27:11;3.27;;;3.07;;
18290;SDS011;9271;48.590;8.866;2022-08-25T01:29:38;3.67;;;3.37;;
18290;SDS011;9271;48.590;8.866;2022-08-25T01:32:06;3.40;;;3.10;;
18290;SDS011;9271;48.590;8.866;2022-08-25T01:34:36;3.83;;;3.07;;
18290;SDS011;9271;48.590;8.866;2022-08-25T01:37:06;3.60;;;3.30;;
18290;SDS011;9271;48.590;8.866;2022-08-25T01:39:35;3.20;;;3.00;;
18290;SDS011;9271;48.590;8.866;2022-08-25T01:42:07;3.37;;;3.07;;
18290;SDS011;9271;48.590;8.866;2022-08-25T01:44:43;3.63;;;3.30;;
18290;SDS011;9271;48.590;8.866;2022-08-25T01:47:11;8.90;;;3.60;;
18290;SDS011;9271;48.590;8.866;2022-08-25T01:49:38;3.93;;;3.60;;
18290;SDS011;9271;48.590;8.866;2022-08-25T01:52:06;3.77;;;3.47;;
18290;SDS011;9271;48.590;8.866;2022-08-25T01:54:41;4.40;;;2.90;;
18290;SDS011;9271;48.590;8.866;2022-08-25T01:57:08;3.60;;;3.33;;
18290;SDS011;9271;48.590;8.866;2022-08-25T01:59:34;3.73;;;3.43;;
18290;SDS011;9271;48.590;8.866;2022-08-25T02:02:01;3.80;;;3.50;;
18290;SDS011;9271;48.590;8.866;2022-08-25T02:04:28;3.87;;;3.57;;
18290;SDS011;9271;48.590;8.866;2022-08-25T02:06:56;3.93;;;3.63;;
18290;SDS011;9271;48.590;8.866;2022-08-25T02:09:23;3.70;;;3.50;;
18290;SDS011;9271;48.590;8.866;2022-08-25T02:11:51;3.57;;;3.27;;
18290;SDS011;9271;48.590;8.866;2022-08-25T02:14:19;4.40;;;3.47;;
18290;SDS011;9271;48.590;8.866;2022-08-25T02:16:46;4.13;;;3.40;;
18290;SDS011;9271;48.590;8.866;2022-08-25T02:19:15;3.37;;;3.17;;
18290;SDS011;9271;48.590;8.866;2022-08-25T02:21:42;3.80;;;3.50;;
18290;SDS011;9271;48.590;8.866;2022-08-25T02:24:10;3.97;;;3.50;;
18290;SDS011;9271;48.590;8.866;2022-08-25T02:26:37;3.97;;;3.30;;
18290;SDS011;9271;48.590;8.866;2022-08-25T02:29:06;4.00;;;3.60;;
18290;SDS011;9271;48.590;8.866;2022-08-25T02:31:33;3.50;;;3.20;;
18290;SDS011;9271;48.590;8.866;2022-08-25T02:34:00;4.67;;;3.33;;
18290;SDS011;9271;48.590;8.866;2022-08-25T02:36:27;6.13;;;3.53;;
18290;SDS011;9271;48.590;8.866;2022-08-25T02:38:56;4.43;;;3.57;;
18290;SDS011;9271;48.590;8.866;2022-08-25T02:41:24;3.47;;;3.27;;
18290;SDS011;9271;48.590;8.866;2022-08-25T02:43:51;3.57;;;3.27;;
18290;SDS011;9271;48.590;8.866;2022-08-25T02:46:20;3.67;;;3.37;;
18290;SDS011;9271;48.590;8.866;2022-08-25T02:48:48;4.07;;;3.77;;
18290;SDS011;9271;48.590;8.866;2022-08-25T02:51:17;3.80;;;3.50;;
18290;SDS011;9271;48.590;8.866;2022-08-25T02:53:45;3.70;;;3.50;;
18290;SDS011;9271;48.590;8.866;2022-08-25T02:56:12;4.00;;;3.60;;
18290;SDS011;9271;48.590;8.866;2022-08-25T02:58:40;3.77;;;3.47;;
18290;SDS011;9271;48.590;8.866;2022-08-25T03:01:07;4.07;;;3.47;;
18290;SDS011;9271;48.590;8.866;2022-08-25T03:03:37;4.07;;;3.57;;
18290;SDS011;9271;48.590;8.866;2022-08-25T03:06:05;3.70;;;3.40;;
18290;SDS011;9271;48.590;8.866;2022-08-25T03:08:32;3.80;;;3.50;;
18290;SDS011;9271;48.590;8.866;2022-08-25T03:10:59;5.17;;;3.40;;
18290;SDS011;9271;48.590;8.866;2022-08-25T03:13:26;4.47;;;3.27;;
18290;SDS011;9271;48.590;8.866;2022-08-25T03:15:53;3.37;;;3.07;;
18290;SDS011;9271;48.590;8.866;2022-08-25T03:18:19;6.17;;;3.80;;
18290;SDS011;9271;48.590;8.866;2022-08-25T03:20:48;4.70;;;4.00;;
18290;SDS011;9271;48.590;8.866;2022-08-25T03:23:15;3.87;;;3.57;;
18290;SDS011;9271;48.590;8.866;2022-08-25T03:25:42;4.57;;;4.03;;
18290;SDS011;9271;48.590;8.866;2022-08-25T03:28:26;4.13;;;3.83;;
18290;SDS011;9271;48.590;8.866;2022-08-25T03:30:55;4.47;;;3.67;;
18290;SDS011;9271;48.590;8.866;2022-08-25T03:33:22;3.97;;;3.67;;
18290;SDS011;9271;48.590;8.866;2022-08-25T03:35:50;4.43;;;3.77;;
18290;SDS011;9271;48.590;8.866;2022-08-25T03:38:17;4.47;;;4.10;;
18290;SDS011;9271;48.590;8.866;2022-08-25T03:40:43;4.00;;;3.70;;
18290;SDS011;9271;48.590;8.866;2022-08-25T03:43:10;4.07;;;3.70;;
18290;SDS011;9271;48.590;8.866;2022-08-25T03:45:39;4.33;;;4.03;;
18290;SDS011;9271;48.590;8.866;2022-08-25T03:48:06;3.90;;;3.60;;
18290;SDS011;9271;48.590;8.866;2022-08-25T03:50:33;5.60;;;4.10;;
18290;SDS011;9271;48.590;8.866;2022-08-25T03:53:02;4.93;;;3.87;;
18290;SDS011;9271;48.590;8.866;2022-08-25T03:55:28;5.33;;;3.80;;
18290;SDS011;9271;48.590;8.866;2022-08-25T03:57:55;4.23;;;3.93;;
18290;SDS011;9271;48.590;8.866;2022-08-25T04:00:22;4.07;;;3.77;;
18290;SDS011;9271;48.590;8.866;2022-08-25T04:02:48;4.60;;;4.20;;
18290;SDS011;9271;48.590;8.866;2022-08-25T04:05:15;5.03;;;4.37;;
18290;SDS011;9271;48.590;8.866;2022-08-25T04:07:42;4.40;;;4.00;;
18290;SDS011;9271;48.590;8.866;2022-08-25T04:10:10;4.80;;;4.40;;
18290;SDS011;9271;48.590;8.866;2022-08-25T04:12:37;4.53;;;4.13;;
18290;SDS011;9271;48.590;8.866;2022-08-25T04:15:05;4.53;;;4.23;;
18290;SDS011;9271;48.590;8.866;2022-08-25T04:17:35;5.70;;;4.50;;
18290;SDS011;9271;48.590;8.866;2022-08-25T04:20:04;6.43;;;4.40;;
18290;SDS011;9271;48.590;8.866;2022-08-25T04:22:32;5.13;;;4.73;;
18290;SDS011;9271;48.590;8.866;2022-08-25T04:24:59;4.77;;;4.00;;
18290;SDS011;9271;48.590;8.866;2022-08-25T04:27:27;4.17;;;3.80;;
18290;SDS011;9271;48.590;8.866;2022-08-25T04:29:53;5.33;;;4.57;;
18290;SDS011;9271;48.590;8.866;2022-08-25T04:32:20;4.53;;;4.20;;
18290;SDS011;9271;48.590;8.866;2022-08-25T04:34:47;7.33;;;4.40;;
18290;SDS011;9271;48.590;8.866;2022-08-25T04:37:14;4.47;;;4.10;;
18290;SDS011;9271;48.590;8.866;2022-08-25T04:39:41;4.70;;;4.30;;
18290;SDS011;9271;48.590;8.866;2022-08-25T04:42:07;4.80;;;4.30;;
18290;SDS011;9271;48.590;8.866;2022-08-25T04:44:35;4.97;;;4.37;;
18290;SDS011;9271;48.590;8.866;2022-08-25T04:47:02;4.63;;;4.23;;
18290;SDS011;9271;48.590;8.866;2022-08-25T04:49:29;4.80;;;4.40;;
18290;SDS011;9271;48.590;8.866;2022-08-25T04:51:56;4.57;;;4.17;;
18290;SDS011;9271;48.590;8.866;2022-08-25T04:54:23;5.33;;;4.73;;
18290;SDS011;9271;48.590;8.866;2022-08-25T04:56:50;4.10;;;3.80;;
18290;SDS011;9271;48.590;8.866;2022-08-25T04:59:17;6.27;;;4.10;;
18290;SDS011;9271;48.590;8.866;2022-08-25T05:01:46;4.80;;;4.40;;
18290;SDS011;9271;48.590;8.866;2022-08-25T05:04:13;4.40;;;4.00;;
18290;SDS011;9271;48.590;8.866;2022-08-25T05:06:41;4.63;;;4.23;;
18290;SDS011;9271;48.590;8.866;2022-08-25T05:09:09;4.77;;;4.37;;
18290;SDS011;9271;48.590;8.866;2022-08-25T05:11:36;6.33;;;4.40;;
18290;SDS011;9271;48.590;8.866;2022-08-25T05:14:03;4.67;;;4.20;;
18290;SDS011;9271;48.590;8.866;2022-08-25T05:16:35;4.60;;;4.20;;
18290;SDS011;9271;48.590;8.866;2022-08-25T05:19:03;5.67;;;4.13;;
18290;SDS011;9271;48.590;8.866;2022-08-25T05:21:30;4.87;;;4.53;;
18290;SDS011;9271;48.590;8.866;2022-08-25T05:23:57;5.00;;;4.47;;
18290;SDS011;9271;48.590;8.866;2022-08-25T05:26:26;5.43;;;4.63;;
18290;SDS011;9271;48.590;8.866;2022-08-25T05:28:55;5.13;;;4.73;;
18290;SDS011;9271;48.590;8.866;2022-08-25T05:31:24;7.30;;;5.20;;
18290;SDS011;9271;48.590;8.866;2022-08-25T05:33:51;6.03;;;4.97;;
18290;SDS011;9271;48.590;8.866;2022-08-25T05:36:21;4.97;;;4.37;;
18290;SDS011;9271;48.590;8.866;2022-08-25T05:38:49;5.57;;;5.00;;
18290;SDS011;9271;48.590;8.866;2022-08-25T05:41:17;4.50;;;4.20;;
18290;SDS011;9271;48.590;8.866;2022-08-25T05:43:46;6.67;;;4.40;;
18290;SDS011;9271;48.590;8.866;2022-08-25T05:46:15;4.57;;;4.17;;
18290;SDS011;9271;48.590;8.866;2022-08-25T05:48:43;5.43;;;4.57;;
18290;SDS011;9271;48.590;8.866;2022-08-25T05:51:10;4.73;;;4.33;;
18290;SDS011;9271;48.590;8.866;2022-08-25T05:53:39;4.43;;;4.10;;
18290;SDS011;9271;48.590;8.866;2022-08-25T05:56:06;5.13;;;4.20;;
18290;SDS011;9271;48.590;8.866;2022-08-25T05:58:34;5.50;;;4.47;;
18290;SDS011;9271;48.590;8.866;2022-08-25T06:01:01;5.50;;;4.77;;
18290;SDS011;9271;48.590;8.866;2022-08-25T06:03:48;4.43;;;4.13;;
18290;SDS011;9271;48.590;8.866;2022-08-25T06:06:17;5.20;;;4.70;;
18290;SDS011;9271;48.590;8.866;2022-08-25T06:08:46;6.00;;;4.30;;
18290;SDS011;9271;48.590;8.866;2022-08-25T06:11:13;4.43;;;4.10;;
18290;SDS011;9271;48.590;8.866;2022-08-25T06:13:41;4.20;;;3.90;;
18290;SDS011;9271;48.590;8.866;2022-08-25T06:16:07;3.93;;;3.63;;
18290;SDS011;9271;48.590;8.866;2022-08-25T06:18:34;3.97;;;3.67;;
18290;SDS011;9271;48.590;8.866;2022-08-25T06:21:06;5.53;;;3.90;;
18290;SDS011;9271;48.590;8.866;2022-08-25T06:23:35;8.17;;;4.10;;
18290;SDS011;9271;48.590;8.866;2022-08-25T06:26:03;5.60;;;4.13;;
18290;SDS011;9271;48.590;8.866;2022-08-25T06:28:31;5.83;;;3.93;;
18290;SDS011;9271;48.590;8.866;2022-08-25T06:30:58;4.37;;;3.97;;
18290;SDS011;9271;48.590;8.866;2022-08-25T06:33:25;6.20;;;4.00;;
18290;SDS011;9271;48.590;8.866;2022-08-25T06:35:52;7.43;;;4.33;;
18290;SDS011;9271;48.590;8.866;2022-08-25T06:38:20;5.63;;;4.47;;
18290;SDS011;9271;48.590;8.866;2022-08-25T06:40:47;4.00;;;3.67;;
18290;SDS011;9271;48.590;8.866;2022-08-25T06:43:17;4.47;;;4.00;;
18290;SDS011;9271;48.590;8.866;2022-08-25T06:45:44;4.63;;;4.23;;
18290;SDS011;9271;48.590;8.866;2022-08-25T06:48:10;5.93;;;4.57;;
18290;SDS011;9271;48.590;8.866;2022-08-25T06:50:37;5.90;;;4.00;;
18290;SDS011;9271;48.590;8.866;2022-08-25T06:53:05;7.13;;;4.47;;
18290;SDS011;9271;48.590;8.866;2022-08-25T06:55:32;4.80;;;4.13;;
18290;SDS011;9271;48.590;8.866;2022-08-25T06:58:00;4.30;;;3.90;;
18290;SDS011;9271;48.590;8.866;2022-08-25T07:00:28;5.07;;;3.50;;
18290;SDS011;9271;48.590;8.866;2022-08-25T07:02:55;5.23;;;3.63;;
18290;SDS011;9271;48.590;8.866;2022-08-25T07:05:22;5.10;;;3.30;;
18290;SDS011;9271;48.590;8.866;2022-08-25T07:07:49;4.80;;;3.53;;
18290;SDS011;9271;48.590;8.866;2022-08-25T07:10:16;4.27;;;3.60;;
18290;SDS011;9271;48.590;8.866;2022-08-25T07:12:43;6.37;;;4.30;;
18290;SDS011;9271;48.590;8.866;2022-08-25T07:15:10;5.82;;;3.75;;
18290;SDS011;9271;48.590;8.866;2022-08-25T07:17:38;5.32;;;3.92;;
18290;SDS011;9271;48.590;8.866;2022-08-25T07:20:05;5.93;;;3.63;;
18290;SDS011;9271;48.590;8.866;2022-08-25T07:22:32;7.57;;;4.00;;
18290;SDS011;9271;48.590;8.866;2022-08-25T07:24:58;4.20;;;3.80;;
18290;SDS011;9271;48.590;8.866;2022-08-25T07:27:25;4.63;;;3.55;;
18290;SDS011;9271;48.590;8.866;2022-08-25T07:29:52;7.38;;;3.72;;
18290;SDS011;9271;48.590;8.866;2022-08-25T07:32:19;3.83;;;3.53;;
18290;SDS011;9271;48.590;8.866;2022-08-25T07:34:47;8.48;;;3.40;;
18290;SDS011;9271;48.590;8.866;2022-08-25T07:37:31;9.15;;;3.58;;
18290;SDS011;9271;48.590;8.866;2022-08-25T07:40:00;7.57;;;3.35;;
18290;SDS011;9271;48.590;8.866;2022-08-25T07:42:28;7.95;;;3.60;;
18290;SDS011;9271;48.590;8.866;2022-08-25T07:44:55;7.10;;;4.22;;
18290;SDS011;9271;48.590;8.866;2022-08-25T07:47:22;4.15;;;3.50;;
18290;SDS011;9271;48.590;8.866;2022-08-25T07:49:50;4.75;;;3.50;;
18290;SDS011;9271;48.590;8.866;2022-08-25T07:52:16;4.60;;;3.30;;
18290;SDS011;9271;48.590;8.866;2022-08-25T07:54:43;7.15;;;3.58;;
18290;SDS011;9271;48.590;8.866;2022-08-25T07:57:10;5.85;;;3.88;;
18290;SDS011;9271;48.590;8.866;2022-08-25T07:59:38;3.50;;;3.20;;
18290;SDS011;9271;48.590;8.866;2022-08-25T08:02:05;4.00;;;3.65;;
18290;SDS011;9271;48.590;8.866;2022-08-25T08:04:34;5.05;;;3.60;;
18290;SDS011;9271;48.590;8.866;2022-08-25T08:07:03;4.03;;;3.55;;
18290;SDS011;9271;48.590;8.866;2022-08-25T08:09:30;6.32;;;3.65;;
18290;SDS011;9271;48.590;8.866;2022-08-25T08:11:57;5.85;;;3.60;;
18290;SDS011;9271;48.590;8.866;2022-08-25T08:14:24;4.38;;;3.55;;
18290;SDS011;9271;48.590;8.866;2022-08-25T08:16:51;3.53;;;3.33;;
18290;SDS011;9271;48.590;8.866;2022-08-25T08:19:18;3.42;;;3.13;;
18290;SDS011;9271;48.590;8.866;2022-08-25T08:21:46;4.35;;;3.45;;
18290;SDS011;9271;48.590;8.866;2022-08-25T08:24:15;4.40;;;3.50;;
18290;SDS011;9271;48.590;8.866;2022-08-25T08:26:42;3.67;;;3.38;;
18290;SDS011;9271;48.590;8.866;2022-08-25T08:29:09;3.53;;;3.30;;
18290;SDS011;9271;48.590;8.866;2022-08-25T08:31:36;4.70;;;3.65;;
18290;SDS011;9271;48.590;8.866;2022-08-25T08:34:03;3.90;;;3.20;;
18290;SDS011;9271;48.590;8.866;2022-08-25T08:36:30;4.88;;;3.13;;
18290;SDS011;9271;48.590;8.866;2022-08-25T08:38:57;4.03;;;3.10;;
18290;SDS011;9271;48.590;8.866;2022-08-25T08:41:40;3.50;;;3.20;;
18290;SDS011;9271;48.590;8.866;2022-08-25T08:44:37;3.40;;;3.08;;
18290;SDS011;9271;48.590;8.866;2022-08-25T08:47:10;3.70;;;3.40;;
18290;SDS011;9271;48.590;8.866;2022-08-25T08:49:46;3.75;;;3.45;;
18290;SDS011;9271;48.590;8.866;2022-08-25T08:52:18;3.60;;;3.33;;
18290;SDS011;9271;48.590;8.866;2022-08-25T08:54:52;6.72;;;3.60;;
18290;SDS011;9271;48.590;8.866;2022-08-25T08:57:26;5.07;;;3.38;;
18290;SDS011;9271;48.590;8.866;2022-08-25T08:59:55;5.30;;;3.70;;
18290;SDS011;9271;48.590;8.866;2022-08-25T09:02:25;3.45;;;3.25;;
18290;SDS011;9271;48.590;8.866;2022-08-25T09:04:57;3.90;;;3.60;;
18290;SDS011;9271;48.590;8.866;2022-08-25T09:07:28;4.25;;;3.45;;
18290;SDS011;9271;48.590;8.866;2022-08-25T09:10:00;4.18;;;3.80;;
18290;SDS011;9271;48.590;8.866;2022-08-25T09:12:31;6.25;;;3.40;;
18290;SDS011;9271;48.590;8.866;2022-08-25T09:15:06;5.30;;;3.22;;
18290;SDS011;9271;48.590;8.866;2022-08-25T09:17:42;3.80;;;3.50;;
18290;SDS011;9271;48.590;8.866;2022-08-25T09:20:28;4.03;;;3.53;;
18290;SDS011;9271;48.590;8.866;2022-08-25T09:23:06;6.13;;;3.50;;
18290;SDS011;9271;48.590;8.866;2022-08-25T09:25:48;3.42;;;3.22;;
18290;SDS011;9271;48.590;8.866;2022-08-25T09:28:20;5.00;;;3.88;;
18290;SDS011;9271;48.590;8.866;2022-08-25T09:30:56;3.67;;;3.10;;
18290;SDS011;9271;48.590;8.866;2022-08-25T09:33:25;4.50;;;3.60;;
18290;SDS011;9271;48.590;8.866;2022-08-25T09:35:53;4.70;;;3.70;;
18290;SDS011;9271;48.590;8.866;2022-08-25T09:38:21;3.35;;;3.05;;
18290;SDS011;9271;48.590;8.866;2022-08-25T09:40:50;3.38;;;3.08;;
18290;SDS011;9271;48.590;8.866;2022-08-25T09:43:23;3.42;;;3.15;;
18290;SDS011;9271;48.590;8.866;2022-08-25T09:45:58;3.88;;;3.10;;
18290;SDS011;9271;48.590;8.866;2022-08-25T09:48:26;3.45;;;3.05;;
18290;SDS011;9271;48.590;8.866;2022-08-25T09:50:56;3.10;;;2.90;;
18290;SDS011;9271;48.590;8.866;2022-08-25T09:53:25;3.65;;;3.00;;
18290;SDS011;9271;48.590;8.866;2022-08-25T09:55:55;3.03;;;2.88;;
18290;SDS011;9271;48.590;8.866;2022-08-25T09:58:29;3.50;;;3.15;;
18290;SDS011;9271;48.590;8.866;2022-08-25T10:01:05;3.13;;;2.92;;
18290;SDS011;9271;48.590;8.866;2022-08-25T10:03:49;3.05;;;2.88;;
18290;SDS011;9271;48.590;8.866;2022-08-25T10:06:23;6.07;;;2.92;;
18290;SDS011;9271;48.590;8.866;2022-08-25T10:08:52;2.80;;;2.60;;
18290;SDS011;9271;48.590;8.866;2022-08-25T10:14:17;3.38;;;3.17;;
18290;SDS011;9271;48.590;8.866;2022-08-25T10:16:51;3.40;;;2.85;;
18290;SDS011;9271;48.590;8.866;2022-08-25T10:19:22;4.25;;;3.08;;
18290;SDS011;9271;48.590;8.866;2022-08-25T10:22:01;3.33;;;2.85;;
18290;SDS011;9271;48.590;8.866;2022-08-25T10:24:33;3.72;;;3.00;;
18290;SDS011;9271;48.590;8.866;2022-08-25T10:27:04;3.60;;;2.70;;
18290;SDS011;9271;48.590;8.866;2022-08-25T10:29:54;2.85;;;2.65;;
18290;SDS011;9271;48.590;8.866;2022-08-25T10:32:37;2.70;;;2.35;;
18290;SDS011;9271;48.590;8.866;2022-08-25T10:35:13;2.42;;;2.33;;
18290;SDS011;9271;48.590;8.866;2022-08-25T10:37:45;2.72;;;2.53;;
18290;SDS011;9271;48.590;8.866;2022-08-25T10:40:24;3.80;;;2.58;;
18290;SDS011;9271;48.590;8.866;2022-08-25T10:42:59;2.80;;;2.60;;
18290;SDS011;9271;48.590;8.866;2022-08-25T10:45:33;2.40;;;2.20;;
18290;SDS011;9271;48.590;8.866;2022-08-25T10:48:32;2.47;;;2.38;;
18290;SDS011;9271;48.590;8.866;2022-08-25T10:51:27;2.88;;;2.40;;
18290;SDS011;9271;48.590;8.866;2022-08-25T10:54:05;2.50;;;2.40;;
18290;SDS011;9271;48.590;8.866;2022-08-25T10:56:41;2.70;;;2.50;;
18290;SDS011;9271;48.590;8.866;2022-08-25T10:59:20;2.72;;;2.53;;
18290;SDS011;9271;48.590;8.866;2022-08-25T11:05:04;2.60;;;2.40;;
18290;SDS011;9271;48.590;8.866;2022-08-25T11:07:35;3.17;;;2.30;;
18290;SDS011;9271;48.590;8.866;2022-08-25T11:10:07;3.28;;;2.30;;
18290;SDS011;9271;48.590;8.866;2022-08-25T11:12:39;3.20;;;2.20;;
18290;SDS011;9271;48.590;8.866;2022-08-25T11:15:11;2.30;;;2.20;;
18290;SDS011;9271;48.590;8.866;2022-08-25T11:17:47;3.42;;;2.55;;
18290;SDS011;9271;48.590;8.866;2022-08-25T11:20:19;4.72;;;2.50;;
18290;SDS011;9271;48.590;8.866;2022-08-25T11:22:49;3.58;;;2.70;;
18290;SDS011;9271;48.590;8.866;2022-08-25T11:25:21;2.53;;;2.40;;
18290;SDS011;9271;48.590;8.866;2022-08-25T11:27:54;2.60;;;2.30;;
18290;SDS011;9271;48.590;8.866;2022-08-25T11:30:26;2.72;;;2.00;;
18290;SDS011;9271;48.590;8.866;2022-08-25T11:32:55;2.28;;;2.08;;
18290;SDS011;9271;48.590;8.866;2022-08-25T11:35:25;2.42;;;2.20;;
18290;SDS011;9271;48.590;8.866;2022-08-25T11:37:57;2.45;;;2.20;;
18290;SDS011;9271;48.590;8.866;2022-08-25T11:40:37;2.13;;;2.03;;
18290;SDS011;9271;48.590;8.866;2022-08-25T11:43:13;2.35;;;2.17;;
18290;SDS011;9271;48.590;8.866;2022-08-25T11:45:58;2.45;;;2.08;;
18290;SDS011;9271;48.590;8.866;2022-08-25T11:48:39;3.47;;;1.88;;
18290;SDS011;9271;48.590;8.866;2022-08-25T11:51:28;2.25;;;1.80;;
18290;SDS011;9271;48.590;8.866;2022-08-25T11:54:14;2.28;;;2.08;;
18290;SDS011;9271;48.590;8.866;2022-08-25T11:56:50;2.40;;;2.20;;
18290;SDS011;9271;48.590;8.866;2022-08-25T12:02:29;2.25;;;2.10;;
18290;SDS011;9271;48.590;8.866;2022-08-25T12:05:00;1.85;;;1.75;;
18290;SDS011;9271;48.590;8.866;2022-08-25T12:07:28;4.90;;;1.80;;
18290;SDS011;9271;48.590;8.866;2022-08-25T12:13:39;2.10;;;2.00;;
18290;SDS011;9271;48.590;8.866;2022-08-25T12:21:52;2.38;;;2.17;;
18290;SDS011;9271;48.590;8.866;2022-08-25T12:24:21;2.25;;;2.10;;
18290;SDS011;9271;48.590;8.866;2022-08-25T12:27:10;2.00;;;1.90;;
18290;SDS011;9271;48.590;8.866;2022-08-25T12:29:49;2.00;;;1.90;;
18290;SDS011;9271;48.590;8.866;2022-08-25T12:32:24;2.85;;;2.00;;
18290;SDS011;9271;48.590;8.866;2022-08-25T12:35:12;3.47;;;1.90;;
18290;SDS011;9271;48.590;8.866;2022-08-25T12:37:57;3.65;;;2.10;;
18290;SDS011;9271;48.590;8.866;2022-08-25T12:40:28;3.58;;;2.20;;
18290;SDS011;9271;48.590;8.866;2022-08-25T12:43:00;2.85;;;2.40;;
18290;SDS011;9271;48.590;8.866;2022-08-25T12:45:34;2.80;;;2.60;;
18290;SDS011;9271;48.590;8.866;2022-08-25T12:51:15;2.50;;;2.30;;
18290;SDS011;9271;48.590;8.866;2022-08-25T12:53:45;2.65;;;2.55;;
18290;SDS011;9271;48.590;8.866;2022-08-25T12:56:19;2.92;;;2.67;;
18290;SDS011;9271;48.590;8.866;2022-08-25T12:58:55;2.25;;;2.13;;
18290;SDS011;9271;48.590;8.866;2022-08-25T13:01:35;2.33;;;2.20;;
18290;SDS011;9271;48.590;8.866;2022-08-25T13:04:48;4.00;;;2.40;;
18290;SDS011;9271;48.590;8.866;2022-08-25T13:07:29;2.10;;;2.00;;
18290;SDS011;9271;48.590;8.866;2022-08-25T13:10:17;3.28;;;2.40;;
18290;SDS011;9271;48.590;8.866;2022-08-25T13:13:21;2.47;;;2.10;;
18290;SDS011;9271;48.590;8.866;2022-08-25T13:16:03;2.05;;;1.95;;
18290;SDS011;9271;48.590;8.866;2022-08-25T13:18:35;2.25;;;2.05;;
18290;SDS011;9271;48.590;8.866;2022-08-25T13:21:04;2.00;;;1.90;;
18290;SDS011;9271;48.590;8.866;2022-08-25T13:23:37;2.25;;;1.90;;
18290;SDS011;9271;48.590;8.866;2022-08-25T13:26:06;3.08;;;2.10;;
18290;SDS011;9271;48.590;8.866;2022-08-25T13:28:35;2.63;;;2.00;;
18290;SDS011;9271;48.590;8.866;2022-08-25T13:31:05;1.92;;;1.83;;
18290;SDS011;9271;48.590;8.866;2022-08-25T13:33:35;2.03;;;1.92;;
18290;SDS011;9271;48.590;8.866;2022-08-25T13:36:02;2.08;;;1.88;;
18290;SDS011;9271;48.590;8.866;2022-08-25T13:38:47;1.70;;;1.70;;
18290;SDS011;9271;48.590;8.866;2022-08-25T13:41:22;1.92;;;1.90;;
18290;SDS011;9271;48.590;8.866;2022-08-25T13:43:50;1.92;;;1.83;;
18290;SDS011;9271;48.590;8.866;2022-08-25T13:46:20;3.38;;;1.95;;
18290;SDS011;9271;48.590;8.866;2022-08-25T13:48:48;2.75;;;2.08;;
18290;SDS011;9271;48.590;8.866;2022-08-25T13:51:17;2.88;;;1.80;;
18290;SDS011;9271;48.590;8.866;2022-08-25T13:53:47;1.80;;;1.70;;
18290;SDS011;9271;48.590;8.866;2022-08-25T13:56:21;2.03;;;1.85;;
18290;SDS011;9271;48.590;8.866;2022-08-25T13:58:51;1.90;;;1.80;;
18290;SDS011;9271;48.590;8.866;2022-08-25T14:01:20;2.15;;;1.90;;
18290;SDS011;9271;48.590;8.866;2022-08-25T14:03:51;4.25;;;2.20;;
18290;SDS011;9271;48.590;8.866;2022-08-25T14:06:20;7.07;;;2.03;;
18290;SDS011;9271;48.590;8.866;2022-08-25T14:09:02;2.45;;;2.25;;
18290;SDS011;9271;48.590;8.866;2022-08-25T14:11:33;2.28;;;2.17;;
18290;SDS011;9271;48.590;8.866;2022-08-25T14:14:09;2.75;;;2.00;;
18290;SDS011;9271;48.590;8.866;2022-08-25T14:16:39;2.97;;;2.00;;
18290;SDS011;9271;48.590;8.866;2022-08-25T14:19:15;2.03;;;1.83;;
18290;SDS011;9271;48.590;8.866;2022-08-25T14:21:43;3.50;;;1.90;;
18290;SDS011;9271;48.590;8.866;2022-08-25T14:24:13;3.10;;;2.08;;
18290;SDS011;9271;48.590;8.866;2022-08-25T14:26:41;2.03;;;1.92;;
18290;SDS011;9271;48.590;8.866;2022-08-25T14:29:08;2.20;;;2.08;;
18290;SDS011;9271;48.590;8.866;2022-08-25T14:31:35;2.40;;;1.83;;
18290;SDS011;9271;48.590;8.866;2022-08-25T14:34:07;3.72;;;1.98;;
18290;SDS011;9271;48.590;8.866;2022-08-25T14:36:40;1.77;;;1.77;;
18290;SDS011;9271;48.590;8.866;2022-08-25T14:39:07;2.33;;;1.85;;
18290;SDS011;9271;48.590;8.866;2022-08-25T14:41:35;1.80;;;1.70;;
18290;SDS011;9271;48.590;8.866;2022-08-25T14:44:04;2.15;;;1.77;;
18290;SDS011;9271;48.590;8.866;2022-08-25T14:46:32;2.08;;;1.88;;
18290;SDS011;9271;48.590;8.866;2022-08-25T14:49:03;2.28;;;1.88;;
18290;SDS011;9271;48.590;8.866;2022-08-25T14:51:32;2.10;;;1.85;;
18290;SDS011;9271;48.590;8.866;2022-08-25T14:54:03;4.35;;;2.50;;
18290;SDS011;9271;48.590;8.866;2022-08-25T14:56:33;2.35;;;2.22;;
18290;SDS011;9271;48.590;8.866;2022-08-25T14:58:59;4.03;;;2.10;;
18290;SDS011;9271;48.590;8.866;2022-08-25T15:01:27;2.15;;;2.05;;
18290;SDS011;9271;48.590;8.866;2022-08-25T15:03:54;2.28;;;1.90;;
18290;SDS011;9271;48.590;8.866;2022-08-25T15:06:25;2.30;;;2.20;;
18290;SDS011;9271;48.590;8.866;2022-08-25T15:08:53;3.38;;;2.05;;
18290;SDS011;9271;48.590;8.866;2022-08-25T15:11:36;3.50;;;2.10;;
18290;SDS011;9271;48.590;8.866;2022-08-25T15:14:05;3.78;;;2.08;;
18290;SDS011;9271;48.590;8.866;2022-08-25T15:16:34;2.10;;;2.00;;
18290;SDS011;9271;48.590;8.866;2022-08-25T15:19:03;3.17;;;1.98;;
18290;SDS011;9271;48.590;8.866;2022-08-25T15:21:31;1.98;;;1.88;;
18290;SDS011;9271;48.590;8.866;2022-08-25T15:23:58;5.57;;;2.00;;
18290;SDS011;9271;48.590;8.866;2022-08-25T15:26:25;2.00;;;1.90;;
18290;SDS011;9271;48.590;8.866;2022-08-25T15:28:53;2.25;;;2.13;;
18290;SDS011;9271;48.590;8.866;2022-08-25T15:31:20;2.05;;;1.95;;
18290;SDS011;9271;48.590;8.866;2022-08-25T15:33:47;3.35;;;2.20;;
18290;SDS011;9271;48.590;8.866;2022-08-25T15:36:15;2.33;;;2.10;;
18290;SDS011;9271;48.590;8.866;2022-08-25T15:38:44;2.42;;;2.10;;
18290;SDS011;9271;48.590;8.866;2022-08-25T15:41:11;2.55;;;2.25;;